Red Village, Vermont
Current Conditions -  °F | °C
As of 4:55 AM on Wednesday 26 Nov 2014 (Local Time) from KCDA Reporting Station
Clear Clear  
Wind Chill: 33°   Ceiling: Unl
Heat Index: 33°   Visibility: 10mi
Dew Point: 20°   Wind: 3mph
Humidity: 59%   Direction: 220°SW
Pressure: 30.19"   Gusts: NA
Location:  44.5541°N, 72.0612°W
Report Text: KCDA 260955Z AUTO 22003KT 10SM CLR 01/M07 A3019 RMK AO2 T00051066
Loading
Personal Weather Stations






























Interactive Weather Map New forecast layout! Learn more

10-Day Weather Forecast

Advertisements
Track Severe Weather on mobile